sensor_id;sensor_type;location;lat;lon;timestamp;pressure;altitude;pressure_sealevel;temperature;humidity
79136;BME280;68533;51.090;17.216;2023-04-25T00:01:49;99216.84;;;8.16;75.23
79136;BME280;68533;51.090;17.216;2023-04-25T00:04:16;99217.75;;;8.12;75.33
79136;BME280;68533;51.090;17.216;2023-04-25T00:06:43;99213.47;;;8.06;75.11
79136;BME280;68533;51.090;17.216;2023-04-25T00:09:08;99222.53;;;8.01;76.05
79136;BME280;68533;51.090;17.216;2023-04-25T00:11:36;99220.84;;;8.05;75.27
79136;BME280;68533;51.090;17.216;2023-04-25T00:14:04;99224.13;;;8.07;74.85
79136;BME280;68533;51.090;17.216;2023-04-25T00:16:30;99217.88;;;8.02;75.31
79136;BME280;68533;51.090;17.216;2023-04-25T00:18:59;99218.16;;;8.00;75.77
79136;BME280;68533;51.090;17.216;2023-04-25T00:21:26;99218.63;;;8.07;75.35
79136;BME280;68533;51.090;17.216;2023-04-25T00:23:55;99221.97;;;8.04;75.42
79136;BME280;68533;51.090;17.216;2023-04-25T00:26:21;99227.53;;;7.99;75.79
79136;BME280;68533;51.090;17.216;2023-04-25T00:28:48;99228.44;;;8.08;74.13
79136;BME280;68533;51.090;17.216;2023-04-25T00:31:14;99230.09;;;8.09;74.42
79136;BME280;68533;51.090;17.216;2023-04-25T00:33:40;99228.81;;;8.02;75.51
79136;BME280;68533;51.090;17.216;2023-04-25T00:36:06;99236.56;;;8.00;74.32
79136;BME280;68533;51.090;17.216;2023-04-25T00:38:32;99233.72;;;8.05;74.40
79136;BME280;68533;51.090;17.216;2023-04-25T00:40:58;99240.03;;;8.05;74.81
79136;BME280;68533;51.090;17.216;2023-04-25T00:43:28;99228.81;;;8.02;74.21
79136;BME280;68533;51.090;17.216;2023-04-25T00:45:56;99237.84;;;8.02;74.35
79136;BME280;68533;51.090;17.216;2023-04-25T00:48:23;99240.16;;;7.95;74.48
79136;BME280;68533;51.090;17.216;2023-04-25T00:50:54;99232.03;;;7.90;74.90
79136;BME280;68533;51.090;17.216;2023-04-25T00:53:21;99238.59;;;7.89;74.72
79136;BME280;68533;51.090;17.216;2023-04-25T00:55:48;99238.88;;;7.88;74.85
79136;BME280;68533;51.090;17.216;2023-04-25T00:58:20;99236.75;;;7.85;75.30
79136;BME280;68533;51.090;17.216;2023-04-25T01:03:22;99232.00;;;7.71;75.44
79136;BME280;68533;51.090;17.216;2023-04-25T01:05:48;99226.75;;;7.75;74.92
79136;BME280;68533;51.090;17.216;2023-04-25T01:08:14;99230.31;;;7.75;74.63
79136;BME280;68533;51.090;17.216;2023-04-25T01:10:40;99231.19;;;7.71;75.51
79136;BME280;68533;51.090;17.216;2023-04-25T01:13:06;99221.94;;;7.67;75.98
79136;BME280;68533;51.090;17.216;2023-04-25T01:15:32;99238.88;;;7.69;75.57
79136;BME280;68533;51.090;17.216;2023-04-25T01:17:58;99243.25;;;7.70;75.08
79136;BME280;68533;51.090;17.216;2023-04-25T01:20:27;99244.28;;;7.74;74.54
79136;BME280;68533;51.090;17.216;2023-04-25T01:22:55;99236.34;;;7.72;74.89
79136;BME280;68533;51.090;17.216;2023-04-25T01:25:23;99246.28;;;7.68;74.75
79136;BME280;68533;51.090;17.216;2023-04-25T01:27:50;99249.31;;;7.67;74.25
79136;BME280;68533;51.090;17.216;2023-04-25T01:30:17;99246.41;;;7.58;75.14
79136;BME280;68533;51.090;17.216;2023-04-25T01:32:43;99244.47;;;7.59;74.73
79136;BME280;68533;51.090;17.216;2023-04-25T01:35:11;99244.47;;;7.59;74.95
79136;BME280;68533;51.090;17.216;2023-04-25T01:37:38;99248.28;;;7.63;74.03
79136;BME280;68533;51.090;17.216;2023-04-25T01:40:06;99254.84;;;7.62;74.23
79136;BME280;68533;51.090;17.216;2023-04-25T01:42:33;99253.22;;;7.61;74.01
79136;BME280;68533;51.090;17.216;2023-04-25T01:45:00;99258.44;;;7.57;73.23
79136;BME280;68533;51.090;17.216;2023-04-25T01:47:26;99266.66;;;7.57;74.14
79136;BME280;68533;51.090;17.216;2023-04-25T01:49:52;99258.28;;;7.49;74.23
79136;BME280;68533;51.090;17.216;2023-04-25T01:52:18;99265.38;;;7.50;73.86
79136;BME280;68533;51.090;17.216;2023-04-25T01:54:45;99258.59;;;7.47;74.22
79136;BME280;68533;51.090;17.216;2023-04-25T01:57:11;99258.63;;;7.42;73.37
79136;BME280;68533;51.090;17.216;2023-04-25T01:59:37;99255.84;;;7.47;73.99
79136;BME280;68533;51.090;17.216;2023-04-25T02:02:03;99255.69;;;7.38;73.53
79136;BME280;68533;51.090;17.216;2023-04-25T02:04:30;99253.56;;;7.30;74.22
79136;BME280;68533;51.090;17.216;2023-04-25T02:06:56;99249.13;;;7.34;73.41
79136;BME280;68533;51.090;17.216;2023-04-25T02:09:22;99256.84;;;7.32;74.07
79136;BME280;68533;51.090;17.216;2023-04-25T02:11:49;99258.16;;;7.35;73.70
79136;BME280;68533;51.090;17.216;2023-04-25T02:14:15;99259.25;;;7.34;73.94
79136;BME280;68533;51.090;17.216;2023-04-25T02:16:42;99255.84;;;7.23;74.21
79136;BME280;68533;51.090;17.216;2023-04-25T02:19:10;99249.78;;;7.26;74.72
79136;BME280;68533;51.090;17.216;2023-04-25T02:21:36;99256.19;;;7.17;74.10
79136;BME280;68533;51.090;17.216;2023-04-25T02:24:03;99265.22;;;7.17;74.24
79136;BME280;68533;51.090;17.216;2023-04-25T02:26:29;99256.19;;;7.17;73.95
79136;BME280;68533;51.090;17.216;2023-04-25T02:28:56;99259.31;;;7.05;74.87
79136;BME280;68533;51.090;17.216;2023-04-25T02:31:22;99263.13;;;7.04;74.97
79136;BME280;68533;51.090;17.216;2023-04-25T02:33:49;99260.47;;;6.99;74.42
79136;BME280;68533;51.090;17.216;2023-04-25T02:36:15;99252.81;;;7.01;74.35
79136;BME280;68533;51.090;17.216;2023-04-25T02:38:41;99259.63;;;7.04;74.60
79136;BME280;68533;51.090;17.216;2023-04-25T02:41:07;99250.63;;;6.98;74.74
79136;BME280;68533;51.090;17.216;2023-04-25T02:43:33;99262.97;;;6.95;74.94
79136;BME280;68533;51.090;17.216;2023-04-25T02:45:59;99260.00;;;6.92;75.27
79136;BME280;68533;51.090;17.216;2023-04-25T02:48:26;99261.09;;;6.91;75.08
79136;BME280;68533;51.090;17.216;2023-04-25T02:50:52;99266.84;;;6.89;75.43
79136;BME280;68533;51.090;17.216;2023-04-25T02:53:18;99261.91;;;6.91;74.64
79136;BME280;68533;51.090;17.216;2023-04-25T02:55:43;99269.09;;;6.82;76.36
79136;BME280;68533;51.090;17.216;2023-04-25T02:58:10;99265.53;;;6.82;75.83
79136;BME280;68533;51.090;17.216;2023-04-25T03:00:35;99267.72;;;6.85;75.94
79136;BME280;68533;51.090;17.216;2023-04-25T03:03:01;99270.44;;;6.85;75.82
79136;BME280;68533;51.090;17.216;2023-04-25T03:05:27;99270.91;;;6.92;75.94
79136;BME280;68533;51.090;17.216;2023-04-25T03:07:53;99255.16;;;6.84;76.27
79136;BME280;68533;51.090;17.216;2023-04-25T03:10:21;99254.09;;;6.80;76.02
79136;BME280;68533;51.090;17.216;2023-04-25T03:12:47;99251.47;;;6.70;76.65
79136;BME280;68533;51.090;17.216;2023-04-25T03:15:13;99247.22;;;6.87;75.47
79136;BME280;68533;51.090;17.216;2023-04-25T03:17:40;99250.56;;;6.79;75.94
79136;BME280;68533;51.090;17.216;2023-04-25T03:20:06;99256.56;;;6.81;75.44
79136;BME280;68533;51.090;17.216;2023-04-25T03:22:34;99262.97;;;6.67;76.58
79136;BME280;68533;51.090;17.216;2023-04-25T03:25:03;99259.22;;;6.57;77.67
79136;BME280;68533;51.090;17.216;2023-04-25T03:27:29;99264.44;;;6.54;77.08
79136;BME280;68533;51.090;17.216;2023-04-25T03:29:57;99249.44;;;6.51;77.56
79136;BME280;68533;51.090;17.216;2023-04-25T03:32:23;99261.69;;;6.54;76.99
79136;BME280;68533;51.090;17.216;2023-04-25T03:34:49;99263.28;;;6.60;76.75
79136;BME280;68533;51.090;17.216;2023-04-25T03:37:20;99267.41;;;6.57;77.45
79136;BME280;68533;51.090;17.216;2023-04-25T03:39:46;99275.56;;;6.62;77.15
79136;BME280;68533;51.090;17.216;2023-04-25T03:42:15;99272.13;;;6.52;77.55
79136;BME280;68533;51.090;17.216;2023-04-25T03:44:41;99270.22;;;6.47;78.21
79136;BME280;68533;51.090;17.216;2023-04-25T03:47:07;99276.78;;;6.46;78.15
79136;BME280;68533;51.090;17.216;2023-04-25T03:49:34;99276.28;;;6.44;78.44
79136;BME280;68533;51.090;17.216;2023-04-25T03:52:01;99265.38;;;6.39;78.96
79136;BME280;68533;51.090;17.216;2023-04-25T03:54:27;99274.09;;;6.41;78.15
79136;BME280;68533;51.090;17.216;2023-04-25T03:56:54;99275.13;;;6.45;78.60
79136;BME280;68533;51.090;17.216;2023-04-25T03:59:20;99274.31;;;6.45;78.39
79136;BME280;68533;51.090;17.216;2023-04-25T04:01:46;99281.41;;;6.51;78.12
79136;BME280;68533;51.090;17.216;2023-04-25T04:04:12;99282.22;;;6.51;77.94
79136;BME280;68533;51.090;17.216;2023-04-25T04:06:39;99289.88;;;6.49;78.07
79136;BME280;68533;51.090;17.216;2023-04-25T04:09:05;99283.88;;;6.47;78.60
79136;BME280;68533;51.090;17.216;2023-04-25T04:11:35;99286.88;;;6.51;78.30
79136;BME280;68533;51.090;17.216;2023-04-25T04:14:05;99295.84;;;6.56;77.78
79136;BME280;68533;51.090;17.216;2023-04-25T04:16:32;99288.13;;;6.63;77.84
79136;BME280;68533;51.090;17.216;2023-04-25T04:19:02;99293.59;;;6.63;77.82
79136;BME280;68533;51.090;17.216;2023-04-25T04:21:29;99283.97;;;6.71;77.52
79136;BME280;68533;51.090;17.216;2023-04-25T04:23:55;99281.22;;;6.71;77.73
79136;BME280;68533;51.090;17.216;2023-04-25T04:26:23;99286.13;;;6.74;77.96
79136;BME280;68533;51.090;17.216;2023-04-25T04:28:52;99280.28;;;6.86;76.55
79136;BME280;68533;51.090;17.216;2023-04-25T04:31:21;99287.09;;;6.88;77.28
79136;BME280;68533;51.090;17.216;2023-04-25T04:33:47;99291.13;;;6.96;76.54
79136;BME280;68533;51.090;17.216;2023-04-25T04:36:13;99290.00;;;6.97;75.35
79136;BME280;68533;51.090;17.216;2023-04-25T04:38:41;99297.34;;;7.01;75.72
79136;BME280;68533;51.090;17.216;2023-04-25T04:41:11;99305.50;;;7.07;75.21
79136;BME280;68533;51.090;17.216;2023-04-25T04:43:38;99297.22;;;7.12;75.42
79136;BME280;68533;51.090;17.216;2023-04-25T04:46:05;99304.06;;;7.14;75.63
79136;BME280;68533;51.090;17.216;2023-04-25T04:48:32;99316.81;;;7.24;75.51
79136;BME280;68533;51.090;17.216;2023-04-25T04:51:00;99307.72;;;7.28;75.01
79136;BME280;68533;51.090;17.216;2023-04-25T04:53:27;99306.00;;;7.37;75.68
79136;BME280;68533;51.090;17.216;2023-04-25T04:55:57;99302.63;;;7.46;74.72
79136;BME280;68533;51.090;17.216;2023-04-25T04:58:26;99301.28;;;7.43;75.07
79136;BME280;68533;51.090;17.216;2023-04-25T05:00:58;99305.31;;;7.51;74.67
79136;BME280;68533;51.090;17.216;2023-04-25T05:03:24;99298.44;;;7.53;73.67
79136;BME280;68533;51.090;17.216;2023-04-25T05:05:53;99301.72;;;7.55;73.03
79136;BME280;68533;51.090;17.216;2023-04-25T05:08:23;99307.34;;;7.64;74.28
79136;BME280;68533;51.090;17.216;2023-04-25T05:10:51;99299.81;;;7.74;73.68
79136;BME280;68533;51.090;17.216;2023-04-25T05:13:17;99300.06;;;7.78;72.58
79136;BME280;68533;51.090;17.216;2023-04-25T05:15:43;99299.34;;;7.91;72.38
79136;BME280;68533;51.090;17.216;2023-04-25T05:18:09;99303.00;;;8.05;71.30
79136;BME280;68533;51.090;17.216;2023-04-25T05:20:37;99304.53;;;8.11;70.34
79136;BME280;68533;51.090;17.216;2023-04-25T05:23:03;99304.31;;;8.08;70.43
79136;BME280;68533;51.090;17.216;2023-04-25T05:25:30;99300.09;;;8.15;71.42
79136;BME280;68533;51.090;17.216;2023-04-25T05:27:56;99289.22;;;8.10;70.29
79136;BME280;68533;51.090;17.216;2023-04-25T05:30:23;99296.34;;;8.11;69.32
79136;BME280;68533;51.090;17.216;2023-04-25T05:32:48;99299.25;;;8.39;71.18
79136;BME280;68533;51.090;17.216;2023-04-25T05:35:15;99302.25;;;8.18;69.03
79136;BME280;68533;51.090;17.216;2023-04-25T05:37:44;99300.34;;;8.19;68.86
79136;BME280;68533;51.090;17.216;2023-04-25T05:40:12;99293.56;;;8.35;68.77
79136;BME280;68533;51.090;17.216;2023-04-25T05:42:38;99300.25;;;8.24;69.06
79136;BME280;68533;51.090;17.216;2023-04-25T05:45:06;99300.88;;;8.40;69.06
79136;BME280;68533;51.090;17.216;2023-04-25T05:47:32;99301.81;;;8.30;68.96
79136;BME280;68533;51.090;17.216;2023-04-25T05:50:04;99301.28;;;8.09;68.68
79136;BME280;68533;51.090;17.216;2023-04-25T05:52:30;99309.72;;;8.13;70.16
79136;BME280;68533;51.090;17.216;2023-04-25T05:55:00;99308.13;;;8.31;68.60
79136;BME280;68533;51.090;17.216;2023-04-25T05:57:27;99312.19;;;8.14;67.99
79136;BME280;68533;51.090;17.216;2023-04-25T05:59:54;99306.91;;;7.99;68.23
79136;BME280;68533;51.090;17.216;2023-04-25T06:02:23;99307.00;;;8.13;69.29
79136;BME280;68533;51.090;17.216;2023-04-25T06:04:52;99308.84;;;8.17;69.87
79136;BME280;68533;51.090;17.216;2023-04-25T06:07:19;99309.22;;;8.30;69.25
79136;BME280;68533;51.090;17.216;2023-04-25T06:09:49;99314.09;;;8.14;67.98
79136;BME280;68533;51.090;17.216;2023-04-25T06:12:18;99305.44;;;8.26;67.74
79136;BME280;68533;51.090;17.216;2023-04-25T06:14:45;99309.69;;;8.55;68.39
79136;BME280;68533;51.090;17.216;2023-04-25T06:17:15;99312.44;;;8.37;67.28
79136;BME280;68533;51.090;17.216;2023-04-25T06:19:44;99307.16;;;8.40;67.40
79136;BME280;68533;51.090;17.216;2023-04-25T06:22:10;99304.19;;;8.55;67.46
79136;BME280;68533;51.090;17.216;2023-04-25T06:24:36;99295.97;;;8.74;66.88
79136;BME280;68533;51.090;17.216;2023-04-25T06:27:02;99300.94;;;8.53;67.26
79136;BME280;68533;51.090;17.216;2023-04-25T06:29:29;99299.81;;;8.73;66.87
79136;BME280;68533;51.090;17.216;2023-04-25T06:31:56;99298.69;;;9.07;67.10
79136;BME280;68533;51.090;17.216;2023-04-25T06:34:23;99294.06;;;9.34;65.71
79136;BME280;68533;51.090;17.216;2023-04-25T06:36:49;99290.91;;;9.41;65.03
79136;BME280;68533;51.090;17.216;2023-04-25T06:39:17;99302.31;;;9.76;64.56
79136;BME280;68533;51.090;17.216;2023-04-25T06:41:46;99300.94;;;10.00;63.41
79136;BME280;68533;51.090;17.216;2023-04-25T06:44:16;99297.91;;;10.29;62.89
79136;BME280;68533;51.090;17.216;2023-04-25T06:46:42;99293.22;;;10.02;61.72
79136;BME280;68533;51.090;17.216;2023-04-25T06:49:09;99304.97;;;10.44;61.49
79136;BME280;68533;51.090;17.216;2023-04-25T06:51:35;99303.06;;;10.44;61.19
79136;BME280;68533;51.090;17.216;2023-04-25T06:54:01;99300.13;;;10.27;60.41
79136;BME280;68533;51.090;17.216;2023-04-25T06:56:32;99304.78;;;10.40;61.81
79136;BME280;68533;51.090;17.216;2023-04-25T06:58:58;99295.22;;;10.38;59.83
79136;BME280;68533;51.090;17.216;2023-04-25T07:01:26;99296.50;;;10.18;59.76
79136;BME280;68533;51.090;17.216;2023-04-25T07:03:52;99294.22;;;10.34;60.40
79136;BME280;68533;51.090;17.216;2023-04-25T07:06:20;99292.84;;;10.67;59.29
79136;BME280;68533;51.090;17.216;2023-04-25T07:08:46;99291.25;;;10.30;58.95
79136;BME280;68533;51.090;17.216;2023-04-25T07:11:12;99292.06;;;10.44;57.85
79136;BME280;68533;51.090;17.216;2023-04-25T07:13:39;99290.38;;;10.79;57.33
79136;BME280;68533;51.090;17.216;2023-04-25T07:16:05;99291.25;;;11.19;57.86
79136;BME280;68533;51.090;17.216;2023-04-25T07:18:31;99291.09;;;11.86;56.62
79136;BME280;68533;51.090;17.216;2023-04-25T07:20:57;99295.50;;;10.95;57.29
79136;BME280;68533;51.090;17.216;2023-04-25T07:23:27;99295.06;;;10.79;57.57
79136;BME280;68533;51.090;17.216;2023-04-25T07:25:53;99297.31;;;11.30;55.83
79136;BME280;68533;51.090;17.216;2023-04-25T07:28:19;99290.91;;;11.12;55.42
79136;BME280;68533;51.090;17.216;2023-04-25T07:30:46;99296.41;;;11.12;55.50
79136;BME280;68533;51.090;17.216;2023-04-25T07:33:12;99292.44;;;11.97;53.49
79136;BME280;68533;51.090;17.216;2023-04-25T07:35:40;99294.22;;;12.02;53.04
79136;BME280;68533;51.090;17.216;2023-04-25T07:38:06;99300.44;;;12.51;53.72
79136;BME280;68533;51.090;17.216;2023-04-25T07:40:35;99292.94;;;12.17;53.16
79136;BME280;68533;51.090;17.216;2023-04-25T07:43:01;99284.22;;;12.40;53.76
79136;BME280;68533;51.090;17.216;2023-04-25T07:45:27;99293.78;;;12.43;52.02
79136;BME280;68533;51.090;17.216;2023-04-25T07:47:53;99288.59;;;12.84;52.91
79136;BME280;68533;51.090;17.216;2023-04-25T07:50:22;99291.03;;;12.34;52.71
79136;BME280;68533;51.090;17.216;2023-04-25T07:52:49;99291.28;;;11.90;53.27
79136;BME280;68533;51.090;17.216;2023-04-25T07:55:18;99299.19;;;11.21;55.78
79136;BME280;68533;51.090;17.216;2023-04-25T07:57:45;99288.78;;;11.09;55.37
79136;BME280;68533;51.090;17.216;2023-04-25T08:00:14;99295.53;;;11.34;54.57
79136;BME280;68533;51.090;17.216;2023-04-25T08:02:41;99301.09;;;11.12;54.38
79136;BME280;68533;51.090;17.216;2023-04-25T08:05:09;99302.44;;;10.92;53.61
79136;BME280;68533;51.090;17.216;2023-04-25T08:07:40;99300.84;;;11.22;55.27
79136;BME280;68533;51.090;17.216;2023-04-25T08:10:07;99293.63;;;11.04;54.58
79136;BME280;68533;51.090;17.216;2023-04-25T08:12:33;99305.38;;;11.26;54.88
79136;BME280;68533;51.090;17.216;2023-04-25T08:15:08;99301.59;;;11.76;53.94
79136;BME280;68533;51.090;17.216;2023-04-25T08:17:35;99301.88;;;12.91;51.78
79136;BME280;68533;51.090;17.216;2023-04-25T08:20:21;99299.41;;;13.07;50.97
79136;BME280;68533;51.090;17.216;2023-04-25T08:22:48;99299.75;;;13.14;50.94
79136;BME280;68533;51.090;17.216;2023-04-25T08:25:14;99302.50;;;13.78;51.59
79136;BME280;68533;51.090;17.216;2023-04-25T08:27:40;99301.09;;;12.56;49.35
79136;BME280;68533;51.090;17.216;2023-04-25T08:30:12;99310.16;;;13.64;48.97
79136;BME280;68533;51.090;17.216;2023-04-25T08:32:39;99309.31;;;12.13;52.61
79136;BME280;68533;51.090;17.216;2023-04-25T08:35:05;99305.53;;;12.00;54.30
79136;BME280;68533;51.090;17.216;2023-04-25T08:37:32;99312.44;;;12.46;54.53
79136;BME280;68533;51.090;17.216;2023-04-25T08:40:01;99321.75;;;12.02;54.84
79136;BME280;68533;51.090;17.216;2023-04-25T08:42:28;99315.66;;;11.43;55.47
79136;BME280;68533;51.090;17.216;2023-04-25T08:45:01;99314.84;;;11.12;57.96
79136;BME280;68533;51.090;17.216;2023-04-25T08:47:29;99313.34;;;11.06;57.74
79136;BME280;68533;51.090;17.216;2023-04-25T08:49:58;99318.13;;;12.41;54.13
79136;BME280;68533;51.090;17.216;2023-04-25T08:52:28;99308.41;;;12.52;53.78
79136;BME280;68533;51.090;17.216;2023-04-25T08:55:00;99312.09;;;12.39;54.69
79136;BME280;68533;51.090;17.216;2023-04-25T08:57:27;99322.84;;;11.84;54.91
79136;BME280;68533;51.090;17.216;2023-04-25T08:59:55;99315.59;;;11.26;57.45
79136;BME280;68533;51.090;17.216;2023-04-25T09:02:21;99319.91;;;11.41;56.41
79136;BME280;68533;51.090;17.216;2023-04-25T09:04:49;99323.25;;;11.07;57.96
79136;BME280;68533;51.090;17.216;2023-04-25T09:07:15;99320.84;;;11.14;58.30
79136;BME280;68533;51.090;17.216;2023-04-25T09:09:44;99326.69;;;11.74;57.12
79136;BME280;68533;51.090;17.216;2023-04-25T09:12:24;99320.47;;;11.60;55.60
79136;BME280;68533;51.090;17.216;2023-04-25T09:15:08;99328.81;;;11.46;57.90
79136;BME280;68533;51.090;17.216;2023-04-25T09:17:34;99322.84;;;11.22;56.99
79136;BME280;68533;51.090;17.216;2023-04-25T09:20:12;99326.81;;;11.07;56.91
79136;BME280;68533;51.090;17.216;2023-04-25T09:22:39;99331.19;;;11.08;57.60
79136;BME280;68533;51.090;17.216;2023-04-25T09:25:11;99324.25;;;11.11;58.14
79136;BME280;68533;51.090;17.216;2023-04-25T09:27:59;99325.28;;;12.59;54.33
79136;BME280;68533;51.090;17.216;2023-04-25T09:30:34;99320.22;;;12.53;53.09
79136;BME280;68533;51.090;17.216;2023-04-25T09:33:10;99313.31;;;13.53;52.00
79136;BME280;68533;51.090;17.216;2023-04-25T09:35:43;99309.81;;;13.10;50.25
79136;BME280;68533;51.090;17.216;2023-04-25T09:38:10;99320.53;;;13.03;51.36
79136;BME280;68533;51.090;17.216;2023-04-25T09:40:41;99319.06;;;12.45;52.58
79136;BME280;68533;51.090;17.216;2023-04-25T09:43:22;99316.38;;;13.60;50.24
79136;BME280;68533;51.090;17.216;2023-04-25T09:45:57;99308.38;;;12.87;50.75
79136;BME280;68533;51.090;17.216;2023-04-25T09:48:29;99320.22;;;13.13;53.61
79136;BME280;68533;51.090;17.216;2023-04-25T09:51:12;99317.94;;;12.37;53.88
79136;BME280;68533;51.090;17.216;2023-04-25T09:53:44;99320.91;;;11.84;55.48
79136;BME280;68533;51.090;17.216;2023-04-25T09:56:12;99321.38;;;11.78;56.78
79136;BME280;68533;51.090;17.216;2023-04-25T09:58:39;99327.50;;;11.44;57.36
79136;BME280;68533;51.090;17.216;2023-04-25T10:01:08;99328.88;;;11.94;56.85
79136;BME280;68533;51.090;17.216;2023-04-25T10:03:35;99327.28;;;12.02;56.43
79136;BME280;68533;51.090;17.216;2023-04-25T10:06:05;99327.56;;;11.83;56.17
79136;BME280;68533;51.090;17.216;2023-04-25T10:08:33;99331.09;;;13.01;53.69
79136;BME280;68533;51.090;17.216;2023-04-25T10:11:02;99331.09;;;14.41;49.91
79136;BME280;68533;51.090;17.216;2023-04-25T10:13:29;99331.91;;;13.74;51.37
79136;BME280;68533;51.090;17.216;2023-04-25T10:16:00;99332.19;;;13.34;52.20
79136;BME280;68533;51.090;17.216;2023-04-25T10:18:30;99323.16;;;12.56;52.68
79136;BME280;68533;51.090;17.216;2023-04-25T10:21:01;99328.34;;;12.58;50.97
79136;BME280;68533;51.090;17.216;2023-04-25T10:23:31;99330.91;;;13.40;50.16
79136;BME280;68533;51.090;17.216;2023-04-25T10:26:01;99335.56;;;13.86;49.12
79136;BME280;68533;51.090;17.216;2023-04-25T10:28:57;99323.88;;;13.51;48.92
79136;BME280;68533;51.090;17.216;2023-04-25T10:31:24;99327.88;;;14.30;49.54
79136;BME280;68533;51.090;17.216;2023-04-25T10:33:50;99334.41;;;13.96;48.00
79136;BME280;68533;51.090;17.216;2023-04-25T10:36:19;99340.09;;;13.62;50.02
79136;BME280;68533;51.090;17.216;2023-04-25T10:38:48;99334.03;;;12.44;50.96
79136;BME280;68533;51.090;17.216;2023-04-25T10:41:23;99325.28;;;12.59;49.48
79136;BME280;68533;51.090;17.216;2023-04-25T10:43:59;99330.94;;;12.54;50.27
79136;BME280;68533;51.090;17.216;2023-04-25T10:46:30;99322.53;;;12.59;50.65
79136;BME280;68533;51.090;17.216;2023-04-25T10:49:01;99324.63;;;12.62;50.94
79136;BME280;68533;51.090;17.216;2023-04-25T10:51:30;99323.13;;;12.30;49.81
79136;BME280;68533;51.090;17.216;2023-04-25T10:54:06;99316.00;;;12.38;50.76
79136;BME280;68533;51.090;17.216;2023-04-25T10:56:40;99312.94;;;12.48;49.92
79136;BME280;68533;51.090;17.216;2023-04-25T10:59:10;99319.41;;;12.69;51.62
79136;BME280;68533;51.090;17.216;2023-04-25T11:01:43;99313.16;;;13.41;49.58
79136;BME280;68533;51.090;17.216;2023-04-25T11:07:12;99316.88;;;13.92;49.10
79136;BME280;68533;51.090;17.216;2023-04-25T11:09:41;99319.81;;;14.46;48.11
79136;BME280;68533;51.090;17.216;2023-04-25T11:12:09;99305.81;;;14.51;48.44
79136;BME280;68533;51.090;17.216;2023-04-25T11:14:37;99312.16;;;15.05;45.28
79136;BME280;68533;51.090;17.216;2023-04-25T11:17:03;99317.25;;;15.48;45.30
79136;BME280;68533;51.090;17.216;2023-04-25T11:19:29;99304.84;;;15.54;45.35
79136;BME280;68533;51.090;17.216;2023-04-25T11:21:57;99315.13;;;16.26;43.25
79136;BME280;68533;51.090;17.216;2023-04-25T11:24:34;99313.41;;;15.98;44.58
79136;BME280;68533;51.090;17.216;2023-04-25T11:27:01;99315.47;;;14.36;44.86
79136;BME280;68533;51.090;17.216;2023-04-25T11:29:34;99316.47;;;14.02;44.75
79136;BME280;68533;51.090;17.216;2023-04-25T11:32:01;99315.19;;;13.70;46.83
79136;BME280;68533;51.090;17.216;2023-04-25T11:34:28;99308.66;;;13.75;46.62
79136;BME280;68533;51.090;17.216;2023-04-25T11:36:57;99313.06;;;13.76;47.15
79136;BME280;68533;51.090;17.216;2023-04-25T11:39:26;99307.91;;;12.84;46.82
79136;BME280;68533;51.090;17.216;2023-04-25T11:41:53;99315.03;;;12.94;46.88
79136;BME280;68533;51.090;17.216;2023-04-25T11:44:22;99317.59;;;13.08;49.53
79136;BME280;68533;51.090;17.216;2023-04-25T11:46:48;99319.41;;;12.95;47.96
79136;BME280;68533;51.090;17.216;2023-04-25T11:49:15;99319.53;;;13.33;48.67
79136;BME280;68533;51.090;17.216;2023-04-25T11:51:45;99323.13;;;12.82;47.91
79136;BME280;68533;51.090;17.216;2023-04-25T11:54:12;99318.44;;;13.17;49.79
79136;BME280;68533;51.090;17.216;2023-04-25T11:56:45;99314.84;;;12.91;47.65
79136;BME280;68533;51.090;17.216;2023-04-25T11:59:11;99313.59;;;12.97;49.38
79136;BME280;68533;51.090;17.216;2023-04-25T12:01:46;99313.25;;;12.55;47.14
79136;BME280;68533;51.090;17.216;2023-04-25T12:04:16;99302.88;;;12.69;46.82
79136;BME280;68533;51.090;17.216;2023-04-25T12:06:46;99306.72;;;13.20;47.64
79136;BME280;68533;51.090;17.216;2023-04-25T12:09:30;99305.19;;;13.86;48.19
79136;BME280;68533;51.090;17.216;2023-04-25T12:11:57;99310.88;;;13.52;46.80
79136;BME280;68533;51.090;17.216;2023-04-25T12:14:24;99304.75;;;13.29;46.76
79136;BME280;68533;51.090;17.216;2023-04-25T12:16:54;99312.09;;;12.82;46.56
79136;BME280;68533;51.090;17.216;2023-04-25T12:19:34;99318.56;;;13.12;46.78
79136;BME280;68533;51.090;17.216;2023-04-25T12:22:01;99304.81;;;12.86;46.71
79136;BME280;68533;51.090;17.216;2023-04-25T12:24:33;99315.69;;;13.17;47.43
79136;BME280;68533;51.090;17.216;2023-04-25T12:27:05;99320.88;;;13.01;47.15
79136;BME280;68533;51.090;17.216;2023-04-25T12:29:33;99318.59;;;12.77;46.96
79136;BME280;68533;51.090;17.216;2023-04-25T12:32:00;99324.91;;;13.12;47.34
79136;BME280;68533;51.090;17.216;2023-04-25T12:34:27;99315.34;;;13.01;46.27
79136;BME280;68533;51.090;17.216;2023-04-25T12:36:54;99319.41;;;12.87;48.34
79136;BME280;68533;51.090;17.216;2023-04-25T12:39:20;99323.00;;;12.78;47.08
79136;BME280;68533;51.090;17.216;2023-04-25T12:41:53;99321.69;;;12.50;47.24
79136;BME280;68533;51.090;17.216;2023-04-25T12:44:20;99325.09;;;12.64;47.95
79136;BME280;68533;51.090;17.216;2023-04-25T12:46:49;99324.63;;;12.88;47.47
79136;BME280;68533;51.090;17.216;2023-04-25T12:49:16;99324.63;;;12.71;46.76
79136;BME280;68533;51.090;17.216;2023-04-25T12:51:44;99323.44;;;12.98;47.19
79136;BME280;68533;51.090;17.216;2023-04-25T12:54:10;99317.72;;;13.37;47.35
79136;BME280;68533;51.090;17.216;2023-04-25T12:56:36;99320.22;;;13.21;47.08
79136;BME280;68533;51.090;17.216;2023-04-25T12:59:04;99318.19;;;13.48;44.13
79136;BME280;68533;51.090;17.216;2023-04-25T13:01:32;99321.53;;;12.64;45.13
79136;BME280;68533;51.090;17.216;2023-04-25T13:04:01;99313.91;;;12.52;45.84
79136;BME280;68533;51.090;17.216;2023-04-25T13:06:28;99322.16;;;12.61;46.90